createdAt,value
2017-12-10T00:02:08.565Z,2.78
2017-12-10T00:04:36.613Z,2.55
2017-12-10T00:07:05.450Z,3.28
2017-12-10T00:09:33.519Z,2.72
2017-12-10T00:12:01.573Z,2.67
2017-12-10T00:14:29.642Z,2.80
2017-12-10T00:16:57.700Z,3.42
2017-12-10T00:19:26.605Z,3.08
2017-12-10T00:21:54.657Z,2.78
2017-12-10T00:24:23.461Z,2.25
2017-12-10T00:26:51.521Z,3.10
2017-12-10T00:29:20.441Z,4.05
2017-12-10T00:31:48.605Z,2.97
2017-12-10T00:34:16.677Z,2.85
2017-12-10T00:36:44.849Z,3.05
2017-12-10T00:39:12.927Z,2.70
2017-12-10T00:41:40.972Z,2.78
2017-12-10T00:44:09.890Z,2.83
2017-12-10T00:46:37.977Z,2.55
2017-12-10T00:49:06.137Z,2.40
2017-12-10T00:51:34.205Z,2.70
2017-12-10T00:54:02.282Z,2.75
2017-12-10T00:56:30.345Z,2.75
2017-12-10T00:58:58.401Z,3.00
2017-12-10T01:01:26.449Z,2.40
2017-12-10T01:03:54.566Z,3.17
2017-12-10T01:06:28.569Z,3.70
2017-12-10T01:08:57.056Z,2.95
2017-12-10T01:11:25.108Z,2.55
2017-12-10T01:13:53.165Z,2.45
2017-12-10T01:16:21.981Z,3.15
2017-12-10T01:18:50.050Z,2.72
2017-12-10T01:21:18.489Z,2.15
2017-12-10T01:23:46.613Z,2.47
2017-12-10T01:26:14.681Z,2.67
2017-12-10T01:28:42.857Z,2.60
2017-12-10T01:31:10.924Z,2.90
2017-12-10T01:33:38.969Z,3.03
2017-12-10T01:36:07.793Z,3.05
2017-12-10T01:38:35.857Z,2.95
2017-12-10T01:41:03.901Z,2.58
2017-12-10T01:43:32.725Z,2.58
2017-12-10T01:46:00.796Z,3.53
2017-12-10T01:48:29.258Z,2.10
2017-12-10T01:50:57.339Z,2.80
2017-12-10T01:53:26.137Z,2.92
2017-12-10T01:55:54.312Z,2.97
2017-12-10T01:58:22.403Z,2.50
2017-12-10T02:00:50.462Z,2.60
2017-12-10T02:03:18.529Z,2.72
2017-12-10T02:05:46.603Z,2.87
2017-12-10T02:08:14.668Z,2.75
2017-12-10T02:10:42.717Z,4.22
2017-12-10T02:13:11.558Z,2.50
2017-12-10T02:15:39.606Z,3.50
2017-12-10T02:18:07.784Z,2.17
2017-12-10T02:20:35.852Z,3.03
2017-12-10T02:23:03.936Z,3.17
2017-12-10T02:25:32.801Z,2.92
2017-12-10T02:28:00.884Z,3.25
2017-12-10T02:30:29.056Z,2.75
2017-12-10T02:32:57.134Z,3.80
2017-12-10T02:35:25.193Z,3.15
2017-12-10T02:37:53.259Z,3.45
2017-12-10T02:40:21.346Z,3.30
2017-12-10T02:42:49.417Z,3.55
2017-12-10T02:45:17.589Z,2.90
2017-12-10T02:47:45.637Z,3.55
2017-12-10T02:50:15.065Z,3.47
2017-12-10T02:52:44.333Z,3.65
2017-12-10T02:55:13.157Z,3.10
2017-12-10T02:57:41.212Z,3.42
2017-12-10T03:00:09.302Z,3.80
2017-12-10T03:02:37.364Z,3.33
2017-12-10T03:05:05.409Z,3.45
2017-12-10T03:07:34.224Z,4.32
2017-12-10T03:10:02.289Z,3.25
2017-12-10T03:12:30.376Z,4.05
2017-12-10T03:14:58.445Z,4.57
2017-12-10T03:17:26.525Z,3.37
2017-12-10T03:19:55.409Z,3.85
2017-12-10T03:22:23.483Z,4.47
2017-12-10T03:24:51.532Z,3.75
2017-12-10T03:27:20.346Z,3.78
2017-12-10T03:29:48.416Z,3.60
2017-12-10T03:32:16.501Z,4.50
2017-12-10T03:34:44.561Z,3.70
2017-12-10T03:37:12.621Z,5.55
2017-12-10T03:39:40.701Z,3.90
2017-12-10T03:42:08.753Z,4.05
2017-12-10T03:44:36.845Z,4.70
2017-12-10T03:47:04.908Z,3.80
2017-12-10T03:49:32.952Z,3.83
2017-12-10T03:52:01.877Z,4.30
2017-12-10T03:54:29.937Z,3.75
2017-12-10T03:56:58.849Z,3.92
2017-12-10T03:59:26.913Z,4.55
2017-12-10T04:01:54.977Z,4.00
2017-12-10T04:04:23.056Z,3.95
2017-12-10T04:06:51.118Z,3.20
2017-12-10T04:09:19.201Z,4.22
2017-12-10T04:11:47.245Z,4.18
2017-12-10T04:14:16.051Z,3.40
2017-12-10T04:16:44.133Z,3.67
2017-12-10T04:19:12.204Z,4.28
2017-12-10T04:21:40.281Z,4.10
2017-12-10T04:24:08.331Z,3.90
2017-12-10T04:26:37.137Z,4.45
2017-12-10T04:29:05.981Z,4.53
2017-12-10T04:31:34.101Z,5.20
2017-12-10T04:34:02.157Z,4.57
2017-12-10T04:36:30.248Z,5.45
2017-12-10T04:38:58.317Z,4.82
2017-12-10T04:41:26.357Z,4.55
2017-12-10T04:43:55.185Z,4.50
2017-12-10T04:46:23.248Z,4.95
2017-12-10T04:48:51.317Z,5.40
2017-12-10T04:51:19.392Z,4.87
2017-12-10T04:53:47.464Z,4.45
2017-12-10T04:56:15.550Z,4.32
2017-12-10T04:58:43.709Z,4.75
2017-12-10T05:01:11.786Z,5.22
2017-12-10T05:03:39.857Z,4.00
2017-12-10T05:06:07.908Z,5.20
2017-12-10T05:08:35.953Z,5.10
2017-12-10T05:11:04.005Z,5.03
2017-12-10T05:13:32.061Z,3.90
2017-12-10T05:16:00.124Z,6.07
2017-12-10T05:18:28.169Z,5.00
2017-12-10T05:20:56.222Z,5.55
2017-12-10T05:23:25.145Z,5.20
2017-12-10T05:25:53.217Z,4.72
2017-12-10T05:28:21.289Z,5.12
2017-12-10T05:30:49.768Z,4.95
2017-12-10T05:33:17.812Z,4.45
2017-12-10T05:35:46.733Z,4.50
2017-12-10T05:38:14.809Z,4.95
2017-12-10T05:40:42.857Z,5.20
2017-12-10T05:43:10.908Z,5.37
2017-12-10T05:45:39.840Z,5.00
2017-12-10T05:48:07.909Z,5.07
2017-12-10T05:50:35.956Z,4.70
2017-12-10T05:53:04.931Z,4.82
2017-12-10T05:55:32.981Z,5.18
2017-12-10T05:58:01.120Z,5.95
2017-12-10T06:00:29.581Z,4.60
2017-12-10T06:02:58.493Z,4.90
2017-12-10T06:05:27.385Z,5.95
2017-12-10T06:07:55.905Z,4.80
2017-12-10T06:10:23.949Z,4.95
2017-12-10T06:12:52.849Z,4.37
2017-12-10T06:15:20.901Z,4.53
2017-12-10T06:17:48.957Z,4.90
2017-12-10T06:20:17.784Z,5.55
2017-12-10T06:22:46.229Z,4.87
2017-12-10T06:25:14.720Z,4.40
2017-12-10T06:27:42.951Z,3.90
2017-12-10T06:30:11.792Z,5.10
2017-12-10T06:32:39.828Z,4.22
2017-12-10T06:35:08.658Z,4.90
2017-12-10T06:37:36.820Z,3.60
2017-12-10T06:40:05.272Z,4.00
2017-12-10T06:42:34.098Z,4.28
2017-12-10T06:45:02.559Z,4.75
2017-12-10T06:47:30.649Z,4.47
2017-12-10T06:49:58.700Z,4.40
2017-12-10T06:52:26.765Z,4.37
2017-12-10T06:54:55.577Z,5.18
2017-12-10T06:57:23.648Z,4.75
2017-12-10T06:59:51.709Z,4.30
2017-12-10T07:02:19.796Z,4.35
2017-12-10T07:04:48.276Z,4.32
2017-12-10T07:07:16.724Z,4.15
2017-12-10T07:09:45.549Z,3.65
2017-12-10T07:12:13.749Z,3.62
2017-12-10T07:14:42.558Z,3.90
2017-12-10T07:17:10.624Z,2.95
2017-12-10T07:19:40.168Z,4.57
2017-12-10T07:22:08.262Z,4.37
2017-12-10T07:24:36.305Z,3.80
2017-12-10T07:27:05.113Z,3.37
2017-12-10T07:29:33.176Z,3.40
2017-12-10T07:32:01.620Z,3.72
2017-12-10T07:34:29.761Z,3.22
2017-12-10T07:36:58.568Z,3.55
2017-12-10T07:39:26.733Z,4.10
2017-12-10T07:41:54.880Z,3.65
2017-12-10T07:44:23.057Z,3.78
2017-12-10T07:46:51.497Z,3.75
2017-12-10T07:49:20.308Z,3.75
2017-12-10T07:51:48.428Z,3.17
2017-12-10T07:54:16.489Z,3.50
2017-12-10T07:56:44.647Z,3.08
2017-12-10T07:59:13.844Z,2.80
2017-12-10T08:01:41.880Z,3.08
2017-12-10T08:04:10.724Z,4.20
2017-12-10T08:06:38.760Z,3.53
2017-12-10T08:09:06.813Z,3.80
2017-12-10T08:11:35.650Z,3.37
2017-12-10T08:14:03.708Z,3.22
2017-12-10T08:16:32.191Z,2.95
2017-12-10T08:19:00.361Z,2.92
2017-12-10T08:21:28.433Z,2.90
2017-12-10T08:23:56.508Z,2.50
2017-12-10T08:26:24.576Z,3.22
2017-12-10T08:28:52.653Z,3.00
2017-12-10T08:31:20.700Z,2.05
2017-12-10T08:33:49.613Z,2.28
2017-12-10T08:36:17.656Z,3.25
2017-12-10T08:38:46.469Z,2.12
2017-12-10T08:41:14.530Z,3.25
2017-12-10T08:43:43.333Z,3.08
2017-12-10T08:46:11.392Z,2.42
2017-12-10T08:48:39.475Z,2.60
2017-12-10T08:51:07.521Z,2.55
2017-12-10T08:53:36.489Z,2.62
2017-12-10T08:56:05.328Z,3.67
2017-12-10T08:58:33.785Z,2.90
2017-12-10T09:01:02.705Z,2.47
2017-12-10T09:03:30.773Z,2.00
2017-12-10T09:05:58.839Z,3.12
2017-12-10T09:08:26.882Z,4.15
2017-12-10T09:10:55.704Z,3.10
2017-12-10T09:13:23.748Z,2.80
2017-12-10T09:15:52.669Z,2.55
2017-12-10T09:18:20.720Z,2.45
2017-12-10T09:20:48.817Z,2.30
2017-12-10T09:23:17.282Z,2.90
2017-12-10T09:25:45.320Z,3.35
2017-12-10T09:28:13.366Z,2.30
2017-12-10T09:30:41.533Z,3.33
2017-12-10T09:33:09.601Z,2.90
2017-12-10T09:35:37.653Z,4.53
2017-12-10T09:38:05.725Z,3.35
2017-12-10T09:40:33.795Z,2.53
2017-12-10T09:43:01.837Z,1.90
2017-12-10T09:45:30.673Z,2.37
2017-12-10T09:47:58.833Z,1.80
2017-12-10T09:50:26.905Z,1.98
2017-12-10T09:52:54.981Z,2.42
2017-12-10T09:55:23.044Z,2.35
2017-12-10T09:57:51.089Z,2.20
2017-12-10T10:00:20.013Z,2.17
2017-12-10T10:02:48.087Z,1.90
2017-12-10T10:05:16.543Z,2.60
2017-12-10T10:07:45.353Z,1.55
2017-12-10T10:10:13.405Z,1.50
2017-12-10T10:12:41.913Z,1.87
2017-12-10T10:15:10.373Z,1.65
2017-12-10T10:17:38.433Z,2.00
2017-12-10T10:20:06.868Z,2.05
2017-12-10T10:22:35.013Z,2.30
2017-12-10T10:25:03.056Z,2.62
2017-12-10T10:27:31.496Z,3.62
2017-12-10T10:29:59.641Z,2.17
2017-12-10T10:32:27.713Z,3.67
2017-12-10T10:34:55.773Z,2.37
2017-12-10T10:37:23.818Z,2.42
2017-12-10T10:39:52.748Z,2.12
2017-12-10T10:42:21.185Z,2.53
2017-12-10T10:44:49.296Z,2.78
2017-12-10T10:47:17.365Z,2.00
2017-12-10T10:49:45.441Z,2.40
2017-12-10T10:52:13.519Z,2.08
2017-12-10T10:54:41.573Z,1.98
2017-12-10T10:57:09.617Z,3.75
2017-12-10T10:59:37.724Z,2.35
2017-12-10T11:02:06.208Z,2.37
2017-12-10T11:04:34.265Z,3.03
2017-12-10T11:07:02.348Z,3.20
2017-12-10T11:09:30.409Z,2.85
2017-12-10T11:11:58.501Z,2.80
2017-12-10T11:14:27.309Z,2.00
2017-12-10T11:16:55.873Z,1.83
2017-12-10T11:19:23.940Z,2.45
2017-12-10T11:21:52.041Z,2.78
2017-12-10T11:24:20.812Z,2.83
2017-12-10T11:26:48.857Z,2.37
2017-12-10T11:29:16.945Z,2.08
2017-12-10T11:31:45.001Z,2.10
2017-12-10T11:34:13.065Z,2.70
2017-12-10T11:36:41.872Z,2.60
2017-12-10T11:39:09.921Z,2.95
2017-12-10T11:41:38.840Z,2.92
2017-12-10T11:44:07.737Z,2.60
2017-12-10T11:46:36.189Z,2.72
2017-12-10T11:49:04.997Z,2.70
2017-12-10T11:51:33.066Z,3.10
2017-12-10T11:54:01.105Z,3.12
2017-12-10T11:56:29.224Z,2.58
2017-12-10T11:58:57.292Z,3.00
2017-12-10T12:01:25.354Z,2.50
2017-12-10T12:03:53.432Z,3.15
2017-12-10T12:06:21.471Z,2.00
2017-12-10T12:08:49.985Z,2.80
2017-12-10T12:11:18.437Z,2.87
2017-12-10T12:13:47.257Z,3.03
2017-12-10T12:16:15.329Z,3.25
2017-12-10T12:18:43.500Z,3.10
2017-12-10T12:21:11.549Z,3.50
2017-12-10T12:23:40.464Z,3.28
2017-12-10T12:26:08.945Z,2.10
2017-12-10T12:28:37.008Z,2.62
2017-12-10T12:31:05.052Z,2.85
2017-12-10T12:33:33.869Z,3.25
2017-12-10T12:36:01.906Z,3.30
2017-12-10T12:38:30.007Z,3.35
2017-12-10T12:40:58.825Z,3.53
2017-12-10T12:43:26.887Z,3.95
2017-12-10T12:45:54.937Z,2.78
2017-12-10T12:48:23.060Z,3.28
2017-12-10T12:50:51.202Z,3.35
2017-12-10T12:53:19.654Z,3.10
2017-12-10T12:55:48.101Z,2.58
2017-12-10T12:58:16.252Z,2.00
2017-12-10T13:00:44.309Z,2.40
2017-12-10T13:03:12.353Z,2.50
2017-12-10T13:05:41.190Z,2.83
2017-12-10T13:08:09.345Z,2.87
2017-12-10T13:10:37.437Z,2.67
2017-12-10T13:13:05.521Z,2.95
2017-12-10T13:15:33.581Z,2.80
2017-12-10T13:18:01.625Z,3.42
2017-12-10T13:20:29.700Z,2.35
2017-12-10T13:22:57.747Z,2.78
2017-12-10T13:25:26.665Z,2.80
2017-12-10T13:27:54.732Z,4.32
2017-12-10T13:30:22.811Z,3.10
2017-12-10T13:32:50.865Z,2.78
2017-12-10T13:35:18.954Z,2.65
2017-12-10T13:37:47.038Z,2.95
2017-12-10T13:40:15.505Z,3.00
2017-12-10T13:42:43.564Z,2.75
2017-12-10T13:45:11.649Z,3.65
2017-12-10T13:47:40.472Z,3.10
2017-12-10T13:50:08.525Z,3.53
2017-12-10T13:52:36.988Z,2.55
2017-12-10T13:55:05.165Z,2.62
2017-12-10T13:57:33.241Z,3.25
2017-12-10T14:00:01.313Z,4.05
2017-12-10T14:02:29.382Z,3.28
2017-12-10T14:04:57.452Z,3.00
2017-12-10T14:07:25.630Z,2.70
2017-12-10T14:09:53.672Z,4.22
2017-12-10T14:12:22.589Z,4.93
2017-12-10T14:14:50.660Z,5.10
2017-12-10T14:17:18.696Z,4.37
2017-12-10T14:19:47.504Z,4.30
2017-12-10T14:22:15.609Z,4.15
2017-12-10T14:24:43.661Z,4.00
2017-12-10T14:27:11.737Z,4.20
2017-12-10T14:29:39.780Z,5.60
2017-12-10T14:32:08.705Z,5.03
2017-12-10T14:34:36.745Z,7.53
2017-12-10T14:37:05.595Z,5.43
2017-12-10T14:39:33.737Z,5.90
2017-12-10T14:42:01.780Z,5.10
2017-12-10T14:44:30.593Z,4.20
2017-12-10T14:46:59.067Z,4.47
2017-12-10T14:49:28.676Z,5.47
2017-12-10T14:51:56.870Z,6.28
2017-12-10T14:54:24.932Z,6.10
2017-12-10T14:56:52.996Z,6.70
2017-12-10T14:59:21.080Z,7.70
2017-12-10T15:01:49.255Z,6.97
2017-12-10T15:04:17.317Z,6.85
2017-12-10T15:06:45.805Z,7.00
2017-12-10T15:09:13.863Z,7.03
2017-12-10T15:11:41.920Z,9.18
2017-12-10T15:14:10.848Z,8.40
2017-12-10T15:16:39.665Z,9.15
2017-12-10T15:19:07.800Z,9.98
2017-12-10T15:21:35.853Z,10.75
2017-12-10T15:24:03.929Z,13.40
2017-12-10T15:26:31.977Z,8.15
2017-12-10T15:29:00.088Z,9.35
2017-12-10T15:31:28.405Z,6.82
2017-12-10T15:33:56.461Z,7.93
2017-12-10T15:36:24.513Z,7.37
2017-12-10T15:38:52.584Z,7.57
2017-12-10T15:41:20.661Z,6.57
2017-12-10T15:43:48.708Z,6.50
2017-12-10T15:46:17.538Z,6.78
2017-12-10T15:48:46.792Z,7.55
2017-12-10T15:51:14.817Z,6.57
2017-12-10T15:53:42.873Z,6.72
2017-12-10T15:56:10.920Z,7.53
2017-12-10T15:58:39.005Z,7.20
2017-12-10T16:01:07.057Z,7.78
2017-12-10T16:03:35.969Z,8.23
2017-12-10T16:06:04.044Z,6.97
2017-12-10T16:08:32.109Z,8.63
2017-12-10T16:11:00.569Z,8.23
2017-12-10T16:13:29.488Z,8.90
2017-12-10T16:15:57.533Z,9.02
2017-12-10T16:18:25.631Z,8.25
2017-12-10T16:20:53.701Z,10.15
2017-12-10T16:23:21.773Z,9.90
2017-12-10T16:25:49.841Z,9.50
2017-12-10T16:28:17.914Z,9.25
2017-12-10T16:30:46.094Z,10.10
2017-12-10T16:33:14.178Z,9.15
2017-12-10T16:35:42.225Z,9.43
2017-12-10T16:38:10.304Z,9.40
2017-12-10T16:40:38.386Z,7.82
2017-12-10T16:43:06.829Z,9.88
2017-12-10T16:45:35.644Z,9.95
2017-12-10T16:48:03.721Z,8.52
2017-12-10T16:50:32.726Z,9.23
2017-12-10T16:53:00.789Z,9.90
2017-12-10T16:55:28.957Z,8.80
2017-12-10T16:57:57.000Z,8.95
2017-12-10T17:00:25.922Z,8.32
2017-12-10T17:02:54.373Z,9.60
2017-12-10T17:05:22.837Z,9.45
2017-12-10T17:07:52.489Z,8.75
2017-12-10T17:10:20.541Z,10.20
2017-12-10T17:12:48.654Z,10.20
2017-12-10T17:15:16.822Z,9.73
2017-12-10T17:17:44.976Z,8.85
2017-12-10T17:20:13.057Z,9.82
2017-12-10T17:22:41.117Z,9.60
2017-12-10T17:25:09.301Z,7.65
2017-12-10T17:27:37.373Z,8.18
2017-12-10T17:30:05.482Z,7.90
2017-12-10T17:32:33.544Z,7.53
2017-12-10T17:35:01.580Z,8.60
2017-12-10T17:37:29.667Z,7.57
2017-12-10T17:39:57.734Z,7.65
2017-12-10T17:42:25.805Z,7.30
2017-12-10T17:44:53.844Z,8.15
2017-12-10T17:47:22.657Z,9.18
2017-12-10T17:49:50.739Z,11.05
2017-12-10T17:52:18.789Z,10.50
2017-12-10T17:54:47.710Z,9.57
2017-12-10T17:57:15.777Z,9.68
2017-12-10T17:59:43.866Z,8.30
2017-12-10T18:02:11.958Z,8.98
2017-12-10T18:04:40.365Z,9.35
2017-12-10T18:07:09.301Z,9.63
2017-12-10T18:09:37.420Z,7.82
2017-12-10T18:12:05.538Z,8.82
2017-12-10T18:14:33.609Z,11.07
2017-12-10T18:17:01.685Z,9.10
2017-12-10T18:19:29.765Z,9.93
2017-12-10T18:21:57.813Z,9.88
2017-12-10T18:24:27.032Z,8.43
2017-12-10T18:26:55.109Z,12.40
2017-12-10T18:29:23.244Z,13.30
2017-12-10T18:31:51.353Z,12.00
2017-12-10T18:34:19.457Z,10.05
2017-12-10T18:36:47.621Z,9.38
2017-12-10T18:39:15.669Z,7.87
2017-12-10T18:41:43.821Z,7.95
2017-12-10T18:44:12.637Z,6.97
2017-12-10T18:46:40.685Z,7.15
2017-12-10T18:49:09.605Z,7.32
2017-12-10T18:51:37.656Z,7.03
2017-12-10T18:54:05.701Z,6.80
2017-12-10T18:56:33.765Z,6.03
2017-12-10T18:59:01.885Z,6.53
2017-12-10T19:01:29.929Z,5.87
2017-12-10T19:03:58.849Z,7.32
2017-12-10T19:06:26.921Z,7.10
2017-12-10T19:08:54.992Z,8.23
2017-12-10T19:11:23.090Z,7.20
2017-12-10T19:13:51.137Z,7.80
2017-12-10T19:16:19.192Z,6.62
2017-12-10T19:18:47.277Z,8.77
2017-12-10T19:21:15.457Z,6.75
2017-12-10T19:23:44.345Z,7.95
2017-12-10T19:26:12.396Z,9.73
2017-12-10T19:28:40.461Z,8.52
2017-12-10T19:31:09.276Z,6.22
2017-12-10T19:33:37.349Z,7.40
2017-12-10T19:36:05.409Z,6.70
2017-12-10T19:38:33.493Z,9.25
2017-12-10T19:41:01.673Z,7.25
2017-12-10T19:43:29.741Z,8.13
2017-12-10T19:45:57.824Z,8.30
2017-12-10T19:48:25.991Z,7.68
2017-12-10T19:50:54.057Z,6.20
2017-12-10T19:53:22.129Z,5.78
2017-12-10T19:55:50.213Z,6.10
2017-12-10T19:58:18.281Z,6.50
2017-12-10T20:00:46.390Z,5.60
2017-12-10T20:03:14.829Z,7.78
2017-12-10T20:05:42.888Z,6.90
2017-12-10T20:08:10.970Z,8.20
2017-12-10T20:10:39.041Z,7.18
2017-12-10T20:13:08.236Z,9.02
2017-12-10T20:15:36.297Z,8.38
2017-12-10T20:18:04.344Z,8.98
2017-12-10T20:20:33.273Z,8.57
2017-12-10T20:23:01.428Z,10.50
2017-12-10T22:48:14.753Z,2.20
2017-12-10T22:50:43.557Z,1.70
